createdAt,value
2022-09-28T00:00:16.780Z,30.92
2022-09-28T00:02:47.122Z,31.80
2022-09-28T00:05:17.020Z,34.72
2022-09-28T00:07:46.795Z,34.13
2022-09-28T00:10:17.491Z,32.33
2022-09-28T00:12:47.370Z,28.80
2022-09-28T00:15:17.160Z,28.85
2022-09-28T00:17:47.350Z,26.70
2022-09-28T00:20:18.869Z,29.50
2022-09-28T00:22:48.626Z,22.67
2022-09-28T00:25:18.486Z,24.27
2022-09-28T00:27:52.665Z,24.75
2022-09-28T00:30:22.449Z,28.33
2022-09-28T00:32:52.491Z,23.10
2022-09-28T00:35:22.766Z,26.05
2022-09-28T00:37:52.730Z,21.35
2022-09-28T00:40:22.548Z,21.05
2022-09-28T00:42:52.592Z,25.00
2022-09-28T00:45:22.624Z,21.80
2022-09-28T00:47:53.568Z,20.52
2022-09-28T00:50:33.507Z,18.10
2022-09-28T00:53:06.570Z,16.88
2022-09-28T00:55:38.604Z,16.63
2022-09-28T00:58:08.767Z,16.13
2022-09-28T01:00:38.597Z,16.77
2022-09-28T01:03:08.367Z,17.20
2022-09-28T01:05:39.697Z,17.42
2022-09-28T01:08:10.271Z,12.55
2022-09-28T01:10:40.214Z,13.35
2022-09-28T01:13:10.129Z,13.80
2022-09-28T01:15:44.355Z,11.88
2022-09-28T01:18:15.793Z,14.90
2022-09-28T01:20:52.606Z,14.00
2022-09-28T01:23:28.500Z,13.00
2022-09-28T01:26:21.220Z,13.85
2022-09-28T01:28:50.900Z,10.10
2022-09-28T01:31:20.720Z,11.10
2022-09-28T01:33:59.179Z,11.48
2022-09-28T01:36:30.913Z,10.90
2022-09-28T01:39:10.667Z,10.75
2022-09-28T01:41:42.664Z,11.15
2022-09-28T01:44:13.115Z,8.60
2022-09-28T01:46:46.253Z,8.30
2022-09-28T01:49:16.038Z,9.43
2022-09-28T01:51:57.615Z,9.88
2022-09-28T01:54:31.949Z,10.50
2022-09-28T01:57:13.958Z,12.57
2022-09-28T01:59:44.706Z,12.57
2022-09-28T02:02:20.241Z,10.82
2022-09-28T02:05:10.857Z,13.63
2022-09-28T02:07:40.837Z,13.05
2022-09-28T02:10:22.481Z,9.52
2022-09-28T02:12:56.621Z,13.13
2022-09-28T02:15:27.384Z,14.32
2022-09-28T02:17:57.580Z,9.40
2022-09-28T02:20:27.554Z,10.32
2022-09-28T02:22:58.528Z,10.07
2022-09-28T02:25:46.134Z,9.35
2022-09-28T02:28:16.137Z,11.45
2022-09-28T02:30:46.735Z,14.60
2022-09-28T02:33:21.949Z,9.80
2022-09-28T02:35:52.071Z,12.30
2022-09-28T02:38:22.039Z,9.50
2022-09-28T02:41:06.338Z,8.68
2022-09-28T02:43:48.553Z,10.45
2022-09-28T02:46:38.210Z,8.93
2022-09-28T02:49:31.336Z,10.27
2022-09-28T02:52:01.298Z,6.57
2022-09-28T02:54:49.369Z,6.72
2022-09-28T02:57:19.220Z,8.43
2022-09-28T02:59:52.284Z,10.30
2022-09-28T03:02:35.102Z,10.68
2022-09-28T03:05:14.815Z,8.93
2022-09-28T03:07:57.097Z,11.75
2022-09-28T03:10:33.244Z,7.60
2022-09-28T03:13:03.062Z,8.20
2022-09-28T03:15:36.385Z,8.98
2022-09-28T03:18:06.323Z,11.02
2022-09-28T03:20:36.635Z,8.70
2022-09-28T03:23:23.984Z,8.07
2022-09-28T03:25:54.889Z,8.20
2022-09-28T03:28:24.841Z,6.65
2022-09-28T03:30:54.508Z,14.05
2022-09-28T03:33:24.440Z,8.50
2022-09-28T03:35:54.949Z,9.77
2022-09-28T03:38:24.876Z,7.13
2022-09-28T03:41:01.125Z,9.32
2022-09-28T03:43:31.062Z,10.35
2022-09-28T03:46:01.585Z,6.55
2022-09-28T03:48:32.836Z,12.48
2022-09-28T03:51:03.653Z,8.48
2022-09-28T03:53:33.582Z,12.63
2022-09-28T03:56:10.206Z,9.25
2022-09-28T03:58:40.159Z,12.02
2022-09-28T04:01:14.122Z,7.10
2022-09-28T04:03:45.774Z,7.03
2022-09-28T04:06:15.571Z,7.65
2022-09-28T04:08:45.508Z,7.85
2022-09-28T04:11:15.311Z,8.80
2022-09-28T04:13:45.705Z,11.15
2022-09-28T04:16:17.509Z,9.57
2022-09-28T04:18:48.792Z,13.10
2022-09-28T04:21:19.687Z,10.73
2022-09-28T04:23:50.375Z,12.23
2022-09-28T04:26:26.608Z,13.85
2022-09-28T04:29:14.371Z,10.52
2022-09-28T04:31:51.172Z,10.23
2022-09-28T04:34:36.589Z,13.93
2022-09-28T04:37:08.769Z,9.35
2022-09-28T04:39:42.240Z,9.13
2022-09-28T04:42:14.859Z,16.17
2022-09-28T04:44:44.769Z,8.50
2022-09-28T04:47:14.435Z,9.20
2022-09-28T04:49:44.160Z,9.32
2022-09-28T04:52:18.089Z,6.65
2022-09-28T04:54:48.394Z,7.22
2022-09-28T04:57:18.075Z,8.13
2022-09-28T04:59:48.133Z,8.18
2022-09-28T05:02:18.677Z,7.15
2022-09-28T05:04:48.759Z,6.03
2022-09-28T05:07:18.696Z,9.18
2022-09-28T05:09:48.589Z,4.32
2022-09-28T05:12:18.533Z,5.00
2022-09-28T05:14:48.771Z,14.13
2022-09-28T05:17:18.703Z,6.20
2022-09-28T05:19:48.687Z,7.28
2022-09-28T05:22:18.762Z,8.23
2022-09-28T05:24:48.792Z,5.72
2022-09-28T05:27:18.696Z,8.88
2022-09-28T05:29:48.486Z,7.70
2022-09-28T05:32:18.557Z,5.22
2022-09-28T05:34:48.458Z,15.30
2022-09-28T05:37:18.123Z,7.05
2022-09-28T05:39:48.040Z,8.55
2022-09-28T05:42:17.706Z,3.13
2022-09-28T05:44:47.438Z,6.53
2022-09-28T05:47:17.505Z,3.50
2022-09-28T05:49:47.351Z,4.32
2022-09-28T05:52:17.548Z,8.70
2022-09-28T05:54:47.344Z,3.97
2022-09-28T05:57:20.304Z,7.90
2022-09-28T05:59:50.267Z,5.05
2022-09-28T06:02:20.423Z,4.75
2022-09-28T06:04:52.748Z,5.60
2022-09-28T06:07:26.564Z,3.70
2022-09-28T06:09:56.299Z,10.43
2022-09-28T06:12:29.967Z,6.70
2022-09-28T06:15:02.901Z,4.60
2022-09-28T06:17:33.228Z,6.47
2022-09-28T06:20:03.498Z,10.30
2022-09-28T06:22:33.687Z,8.00
2022-09-28T06:25:03.719Z,6.40
2022-09-28T06:27:33.791Z,5.28
2022-09-28T06:30:06.997Z,9.13
2022-09-28T06:32:37.797Z,5.38
2022-09-28T06:35:12.451Z,40.03
2022-09-28T06:37:45.263Z,9.45
2022-09-28T06:40:15.416Z,8.82
2022-09-28T06:42:45.404Z,7.70
2022-09-28T06:45:15.574Z,9.18
2022-09-28T06:47:45.630Z,10.23
2022-09-28T06:50:16.022Z,14.25
2022-09-28T06:52:45.794Z,9.15
2022-09-28T06:55:16.265Z,9.73
2022-09-28T06:57:46.377Z,8.55
2022-09-28T07:00:16.356Z,9.13
2022-09-28T07:02:59.592Z,5.15
2022-09-28T07:05:30.615Z,7.45
2022-09-28T07:08:00.914Z,5.60
2022-09-28T07:10:31.163Z,4.88
2022-09-28T07:13:02.987Z,4.25
2022-09-28T07:15:33.067Z,7.38
2022-09-28T07:18:04.132Z,5.93
2022-09-28T07:20:49.489Z,5.95
2022-09-28T07:23:21.861Z,4.63
2022-09-28T07:25:51.798Z,6.47
2022-09-28T07:28:22.763Z,6.68
2022-09-28T07:30:52.557Z,6.60
2022-09-28T07:33:23.077Z,10.43
2022-09-28T07:35:54.652Z,6.55
2022-09-28T07:38:25.230Z,7.60
2022-09-28T07:41:14.680Z,9.52
2022-09-28T07:43:44.907Z,6.43
2022-09-28T07:46:15.269Z,11.57
2022-09-28T07:48:47.296Z,8.02
2022-09-28T07:51:19.372Z,9.65
2022-09-28T07:53:49.782Z,9.07
2022-09-28T07:56:20.030Z,10.40
2022-09-28T07:58:50.519Z,9.18
2022-09-28T08:01:20.605Z,6.43
2022-09-28T08:03:50.487Z,9.07
2022-09-28T08:06:20.408Z,6.63
2022-09-28T08:08:50.636Z,6.45
2022-09-28T08:11:21.005Z,7.68
2022-09-28T08:13:51.196Z,8.27
2022-09-28T08:16:21.642Z,7.88
2022-09-28T08:18:51.729Z,8.18
2022-09-28T08:21:39.583Z,13.52
2022-09-28T08:24:09.403Z,13.00
2022-09-28T08:26:39.073Z,7.60
2022-09-28T08:29:09.826Z,5.20
2022-09-28T08:31:39.751Z,6.65
2022-09-28T08:34:09.902Z,6.63
2022-09-28T08:36:40.471Z,110.43
2022-09-28T08:39:10.251Z,9.07
2022-09-28T08:41:44.723Z,5.50
2022-09-28T08:44:15.299Z,6.95
2022-09-28T08:46:46.832Z,9.55
2022-09-28T08:49:38.129Z,8.20
2022-09-28T08:52:07.857Z,7.55
2022-09-28T08:54:50.504Z,7.32
2022-09-28T08:57:52.655Z,9.73
2022-09-28T09:00:39.431Z,7.38
2022-09-28T09:03:09.249Z,15.07
2022-09-28T09:05:45.500Z,7.53
2022-09-28T09:08:18.421Z,12.38
2022-09-28T09:10:54.503Z,11.63
2022-09-28T09:13:30.540Z,12.10
2022-09-28T09:16:00.509Z,22.55
2022-09-28T09:18:36.238Z,9.82
2022-09-28T09:21:20.823Z,11.35
2022-09-28T09:24:00.458Z,12.02
2022-09-28T09:26:36.851Z,13.27
2022-09-28T09:29:09.710Z,12.90
2022-09-28T09:31:48.789Z,14.18
2022-09-28T09:39:33.554Z,15.98
2022-09-28T09:42:06.112Z,15.95
2022-09-28T09:44:36.783Z,13.95
2022-09-28T09:47:26.440Z,19.90
2022-09-28T09:50:09.201Z,16.55
2022-09-28T09:52:48.010Z,17.17
2022-09-28T09:55:18.964Z,20.20
2022-09-28T09:57:55.498Z,37.00
2022-09-28T10:00:25.180Z,23.17
2022-09-28T10:02:55.352Z,24.60
2022-09-28T10:05:27.277Z,17.50
2022-09-28T10:08:07.051Z,23.90
2022-09-28T10:10:37.758Z,20.42
2022-09-28T10:13:07.703Z,23.05
2022-09-28T10:15:38.241Z,29.63
2022-09-28T10:18:09.925Z,26.75
2022-09-28T10:20:43.132Z,23.35
2022-09-28T10:23:16.912Z,20.98
2022-09-28T10:25:46.840Z,24.42
2022-09-28T10:28:18.776Z,25.67
2022-09-28T10:30:48.872Z,36.22
2022-09-28T10:33:33.156Z,26.92
2022-09-28T10:36:03.545Z,30.15
2022-09-28T10:38:33.544Z,29.98
2022-09-28T10:41:23.327Z,29.58
2022-09-28T10:44:07.683Z,25.33
2022-09-28T10:46:37.787Z,23.52
2022-09-28T10:49:09.341Z,23.30
2022-09-28T10:51:48.519Z,29.02
2022-09-28T10:54:22.483Z,30.65
2022-09-28T10:56:52.615Z,57.60
2022-09-28T10:59:31.790Z,25.75
2022-09-28T11:02:03.121Z,32.85
2022-09-28T11:04:33.536Z,31.92
2022-09-28T11:07:03.618Z,33.47
2022-09-28T11:09:36.460Z,31.13
2022-09-28T11:12:07.560Z,41.78
2022-09-28T11:14:44.565Z,34.25
2022-09-28T11:17:18.262Z,33.50
2022-09-28T11:19:48.335Z,33.33
2022-09-28T11:22:30.639Z,33.40
2022-09-28T11:25:18.791Z,38.47
2022-09-28T11:27:55.155Z,43.90
2022-09-28T11:30:26.725Z,42.50
2022-09-28T11:32:57.630Z,33.78
2022-09-28T11:35:32.877Z,42.60
2022-09-28T11:38:24.522Z,35.35
2022-09-28T11:40:54.900Z,32.80
2022-09-28T11:43:28.396Z,35.53
2022-09-28T11:46:02.703Z,39.92
2022-09-28T11:48:52.773Z,40.85
2022-09-28T11:51:33.185Z,37.67
2022-09-28T11:54:06.783Z,37.35
2022-09-28T11:56:37.392Z,42.97
2022-09-28T11:59:14.341Z,45.78
2022-09-28T12:01:44.879Z,48.85
2022-09-28T12:04:20.497Z,73.20
2022-09-28T12:06:54.800Z,43.92
2022-09-28T12:09:39.363Z,50.38
2022-09-28T12:12:21.099Z,47.88
2022-09-28T12:14:51.976Z,47.97
2022-09-28T12:17:48.929Z,47.70
2022-09-28T12:20:42.209Z,48.65
2022-09-28T12:23:18.734Z,51.28
2022-09-28T12:25:50.266Z,47.00
2022-09-28T12:28:46.596Z,42.67
2022-09-28T12:31:24.499Z,45.05
2022-09-28T12:33:56.866Z,43.30
2022-09-28T12:36:47.125Z,41.42
2022-09-28T12:39:56.337Z,41.65
2022-09-28T12:42:32.053Z,44.80
2022-09-28T12:45:06.925Z,44.92
2022-09-28T12:47:50.924Z,47.03
2022-09-28T12:50:44.028Z,51.53
2022-09-28T12:53:36.603Z,42.38
2022-09-28T12:56:08.380Z,49.17
2022-09-28T12:58:56.010Z,48.80
2022-09-28T13:01:37.865Z,45.05
2022-09-28T13:04:15.168Z,45.42
2022-09-28T13:06:45.956Z,53.00
2022-09-28T13:09:24.395Z,49.67
2022-09-28T13:12:13.671Z,49.92
2022-09-28T13:15:02.925Z,52.05
2022-09-28T13:17:36.779Z,51.33
2022-09-28T13:20:25.748Z,54.60
2022-09-28T13:23:13.263Z,60.38
2022-09-28T13:25:44.685Z,61.75
2022-09-28T13:28:17.555Z,74.10
2022-09-28T13:30:48.393Z,73.97
2022-09-28T13:33:42.863Z,75.97
2022-09-28T13:36:28.743Z,76.25
2022-09-28T13:39:01.862Z,80.35
2022-09-28T13:41:36.459Z,79.50
2022-09-28T13:44:18.917Z,77.53
2022-09-28T13:46:55.660Z,81.28
2022-09-28T13:49:45.196Z,80.05
2022-09-28T13:52:18.834Z,83.72
2022-09-28T13:55:07.132Z,71.70
2022-09-28T13:57:59.164Z,76.15
2022-09-28T14:00:34.730Z,89.22
2022-09-28T14:03:08.366Z,73.13
2022-09-28T14:05:45.206Z,67.75
2022-09-28T14:08:31.014Z,60.17
2022-09-28T14:11:23.455Z,68.80
2022-09-28T14:14:16.454Z,61.53
2022-09-28T14:16:50.068Z,69.95
2022-09-28T14:19:20.619Z,66.70
2022-09-28T14:21:54.233Z,62.88
2022-09-28T14:24:24.606Z,66.30
2022-09-28T14:27:18.137Z,68.70
2022-09-28T14:29:48.342Z,64.75
2022-09-28T14:32:21.550Z,58.42
2022-09-28T14:34:58.811Z,63.63
2022-09-28T14:37:53.702Z,63.33
2022-09-28T14:40:49.902Z,59.38
2022-09-28T14:43:30.509Z,57.15
2022-09-28T14:46:12.815Z,53.65
2022-09-28T14:48:56.366Z,58.45
2022-09-28T14:51:31.590Z,54.80
2022-09-28T14:54:06.205Z,49.50
2022-09-28T14:56:48.772Z,58.67
2022-09-28T14:59:28.865Z,49.92
2022-09-28T15:01:59.359Z,57.70
2022-09-28T15:04:29.980Z,50.90
2022-09-28T15:06:59.872Z,48.03
2022-09-28T15:09:36.440Z,49.10
2022-09-28T15:12:15.267Z,44.25
2022-09-28T15:14:47.371Z,49.70
2022-09-28T15:17:19.120Z,43.92
2022-09-28T15:19:54.608Z,44.17
2022-09-28T15:22:24.365Z,52.35
2022-09-28T15:25:02.179Z,47.50
2022-09-28T15:27:39.125Z,52.60
2022-09-28T15:30:26.911Z,48.42
2022-09-28T15:32:58.384Z,44.33
2022-09-28T15:35:28.994Z,41.95
2022-09-28T15:38:00.272Z,43.38
2022-09-28T15:40:40.471Z,44.17
2022-09-28T15:43:34.630Z,44.00
2022-09-28T15:46:17.732Z,45.25
2022-09-28T15:48:53.192Z,48.20
2022-09-28T15:51:23.517Z,44.78
2022-09-28T15:54:11.273Z,46.15
2022-09-28T15:57:06.852Z,47.45
2022-09-28T15:59:38.130Z,47.33
2022-09-28T16:02:15.587Z,43.42
2022-09-28T16:05:08.510Z,51.88
2022-09-28T16:07:42.921Z,45.70
2022-09-28T16:10:15.800Z,53.13
2022-09-28T16:12:49.650Z,52.22
2022-09-28T16:15:21.879Z,50.67
2022-09-28T16:17:56.067Z,47.22
2022-09-28T16:20:33.346Z,51.75
2022-09-28T16:23:07.406Z,51.63
2022-09-28T16:25:38.774Z,47.90
2022-09-28T16:28:08.845Z,47.45
2022-09-28T16:30:38.878Z,49.58
2022-09-28T16:33:09.441Z,47.05
2022-09-28T16:35:45.426Z,58.22
2022-09-28T16:38:18.913Z,49.78
2022-09-28T16:40:52.135Z,50.55
2022-09-28T16:43:31.674Z,49.92
2022-09-28T16:46:07.701Z,50.95
2022-09-28T16:48:38.609Z,49.97
2022-09-28T16:51:08.732Z,53.00
2022-09-28T16:53:56.833Z,45.83
2022-09-28T16:56:26.416Z,53.25
2022-09-28T16:58:56.555Z,52.45
2022-09-28T17:01:26.316Z,48.47
2022-09-28T17:03:56.161Z,51.72
2022-09-28T17:06:29.315Z,44.78
2022-09-28T17:08:59.885Z,42.97
2022-09-28T17:11:29.516Z,51.63
2022-09-28T17:14:00.274Z,45.58
2022-09-28T17:17:02.329Z,50.45
2022-09-28T17:19:26.962Z,42.42
2022-09-28T17:21:56.711Z,39.75
2022-09-28T17:24:26.349Z,45.00
2022-09-28T17:26:56.126Z,37.13
2022-09-28T17:29:25.878Z,42.33
2022-09-28T17:31:56.455Z,38.38
2022-09-28T17:34:26.667Z,43.85
2022-09-28T17:36:57.367Z,44.63
2022-09-28T17:39:27.102Z,36.92
2022-09-28T17:41:56.859Z,44.45
2022-09-28T17:44:26.450Z,38.20
2022-09-28T17:46:56.103Z,35.33
2022-09-28T17:49:26.065Z,39.38
2022-09-28T17:51:56.416Z,37.10
2022-09-28T17:54:27.003Z,40.80
2022-09-28T17:56:56.771Z,44.72
2022-09-28T17:59:28.023Z,43.08
2022-09-28T18:02:01.522Z,39.50
2022-09-28T18:04:51.244Z,38.72
2022-09-28T18:07:21.898Z,40.47
2022-09-28T18:09:58.443Z,41.60
2022-09-28T18:12:28.144Z,45.38
2022-09-28T18:14:57.861Z,36.53
2022-09-28T18:17:27.422Z,35.00
2022-09-28T18:19:57.150Z,36.83
2022-09-28T18:22:26.860Z,34.38
2022-09-28T18:24:56.292Z,34.50
2022-09-28T18:27:25.699Z,29.42
2022-09-28T18:29:55.395Z,34.75
2022-09-28T18:32:25.388Z,27.73
2022-09-28T18:34:55.174Z,32.25
2022-09-28T18:37:24.747Z,35.88
2022-09-28T18:39:54.314Z,36.72
2022-09-28T18:42:24.658Z,32.60
2022-09-28T18:44:54.519Z,28.70
2022-09-28T18:47:24.759Z,27.23
2022-09-28T18:49:54.381Z,26.52
2022-09-28T18:52:24.041Z,27.05
2022-09-28T18:54:53.633Z,25.42
2022-09-28T18:57:24.014Z,30.20
2022-09-28T18:59:53.680Z,29.00
2022-09-28T19:02:23.651Z,35.67
2022-09-28T19:04:53.605Z,32.45
2022-09-28T19:07:23.253Z,34.70
2022-09-28T19:09:54.236Z,38.78
2022-09-28T19:12:24.124Z,34.63
2022-09-28T19:14:54.377Z,31.73
2022-09-28T19:17:24.321Z,28.02
2022-09-28T19:19:54.248Z,30.00
2022-09-28T19:22:23.963Z,29.23
2022-09-28T19:24:53.616Z,29.55
2022-09-28T19:27:23.460Z,30.40
2022-09-28T19:29:53.405Z,29.35
2022-09-28T19:32:23.294Z,30.55
2022-09-28T19:34:53.109Z,32.55
2022-09-28T19:37:23.037Z,33.97
2022-09-28T19:39:53.058Z,27.02
2022-09-28T19:42:23.083Z,32.05
2022-09-28T19:44:52.709Z,28.85
2022-09-28T19:47:23.057Z,29.10
2022-09-28T19:49:52.919Z,28.95
2022-09-28T19:52:22.610Z,25.65
2022-09-28T19:54:58.563Z,28.40
2022-09-28T19:57:32.438Z,32.03
2022-09-28T20:00:03.980Z,27.42
2022-09-28T20:02:33.770Z,25.63
2022-09-28T20:05:03.493Z,31.52
2022-09-28T20:07:34.863Z,27.77
2022-09-28T20:10:04.565Z,27.48
2022-09-28T20:12:34.290Z,33.10
2022-09-28T20:15:04.117Z,29.75
2022-09-28T20:17:33.826Z,26.73
2022-09-28T20:20:03.713Z,29.98
2022-09-28T20:22:33.555Z,27.35
2022-09-28T20:25:04.333Z,31.55
2022-09-28T20:27:33.948Z,22.90
2022-09-28T20:30:03.760Z,25.10
2022-09-28T20:32:36.809Z,23.38
2022-09-28T20:35:06.624Z,19.67
2022-09-28T20:37:36.375Z,23.73
2022-09-28T20:40:06.412Z,26.52
2022-09-28T20:42:36.307Z,31.70
2022-09-28T20:45:06.692Z,30.38
2022-09-28T20:47:36.576Z,19.50
2022-09-28T20:50:07.942Z,27.27
2022-09-28T20:52:37.624Z,19.92
2022-09-28T20:55:07.679Z,22.08
2022-09-28T20:57:37.299Z,17.77
2022-09-28T21:00:07.152Z,19.90
2022-09-28T21:02:36.817Z,22.30
2022-09-28T21:05:08.387Z,23.60
2022-09-28T21:07:38.071Z,25.98
2022-09-28T21:10:07.940Z,19.85
2022-09-28T21:12:38.277Z,17.27
2022-09-28T21:15:08.423Z,19.63
2022-09-28T21:17:38.165Z,18.27
2022-09-28T21:20:08.059Z,18.17
2022-09-28T21:22:37.717Z,18.65
2022-09-28T21:25:07.689Z,20.70
2022-09-28T21:27:38.157Z,26.27
2022-09-28T21:30:08.368Z,17.45
2022-09-28T21:32:38.118Z,15.27
2022-09-28T21:35:08.013Z,22.05
2022-09-28T21:37:38.662Z,13.07
2022-09-28T21:40:11.158Z,15.88
2022-09-28T21:42:40.823Z,12.25
2022-09-28T21:45:11.607Z,14.10
2022-09-28T21:47:42.703Z,15.98
2022-09-28T21:50:12.425Z,16.90
2022-09-28T21:52:42.217Z,10.30
2022-09-28T21:55:12.342Z,16.25
2022-09-28T21:57:42.055Z,16.65
2022-09-28T22:00:13.606Z,16.52
2022-09-28T22:02:43.325Z,14.82
2022-09-28T22:05:13.523Z,10.20
2022-09-28T22:07:43.664Z,10.90
2022-09-28T22:10:14.529Z,9.15
2022-09-28T22:12:44.157Z,15.10
2022-09-28T22:15:13.856Z,9.07
2022-09-28T22:17:43.679Z,15.65
2022-09-28T22:20:13.339Z,16.67
2022-09-28T22:22:43.120Z,12.38
2022-09-28T22:25:12.816Z,13.80
2022-09-28T22:27:42.642Z,16.17
2022-09-28T22:30:12.659Z,11.18
2022-09-28T22:32:43.358Z,25.45
2022-09-28T22:35:12.998Z,20.48
2022-09-28T22:37:42.778Z,13.90
2022-09-28T22:40:14.137Z,14.85
2022-09-28T22:42:44.571Z,13.45
2022-09-28T22:45:14.553Z,15.13
2022-09-28T22:47:44.471Z,22.15
2022-09-28T22:50:14.141Z,22.77
2022-09-28T22:52:43.788Z,26.13
2022-09-28T22:55:14.279Z,29.27
2022-09-28T22:57:43.903Z,21.20
2022-09-28T23:00:13.677Z,26.35
2022-09-28T23:02:43.428Z,16.83
2022-09-28T23:05:13.279Z,27.77
2022-09-28T23:07:43.090Z,28.55
2022-09-28T23:10:13.126Z,31.85
2022-09-28T23:12:43.173Z,32.33
2022-09-28T23:15:13.327Z,28.23
2022-09-28T23:17:42.926Z,36.03
2022-09-28T23:20:12.887Z,30.98
2022-09-28T23:22:42.747Z,34.72
2022-09-28T23:25:12.441Z,40.38
2022-09-28T23:27:42.133Z,35.08
2022-09-28T23:30:12.431Z,35.78
2022-09-28T23:32:42.845Z,33.55
2022-09-28T23:35:12.833Z,35.47
2022-09-28T23:37:42.657Z,37.40
2022-09-28T23:40:12.601Z,36.85
2022-09-28T23:42:42.665Z,28.38
2022-09-28T23:45:12.636Z,33.05
2022-09-28T23:47:42.361Z,32.05
2022-09-28T23:50:12.323Z,29.15
2022-09-28T23:52:42.097Z,37.20
2022-09-28T23:55:11.882Z,26.95
2022-09-28T23:57:42.571Z,24.75
